createdAt,value
2017-08-23T00:01:18.416Z,9.63
2017-08-23T00:03:44.926Z,8.65
2017-08-23T00:06:11.242Z,9.15
2017-08-23T00:08:37.539Z,11.23
2017-08-23T00:11:04.130Z,8.45
2017-08-23T00:13:30.389Z,10.10
2017-08-23T00:15:56.641Z,10.73
2017-08-23T00:18:22.927Z,9.98
2017-08-23T00:20:49.220Z,8.68
2017-08-23T00:23:15.515Z,9.13
2017-08-23T00:25:41.784Z,9.75
2017-08-23T00:28:08.141Z,9.57
2017-08-23T00:30:34.409Z,9.50
2017-08-23T00:33:00.736Z,8.88
2017-08-23T00:35:27.045Z,8.80
2017-08-23T00:37:53.624Z,10.13
2017-08-23T00:40:19.898Z,8.98
2017-08-23T00:42:46.192Z,9.98
2017-08-23T00:45:12.496Z,9.60
2017-08-23T00:47:38.780Z,9.18
2017-08-23T00:50:05.131Z,8.20
2017-08-23T00:52:31.458Z,7.50
2017-08-23T00:54:57.785Z,8.63
2017-08-23T00:57:24.082Z,9.32
2017-08-23T00:59:50.376Z,9.10
2017-08-23T01:02:16.687Z,9.25
2017-08-23T01:04:42.970Z,9.30
2017-08-23T01:07:09.269Z,9.50
2017-08-23T01:09:35.567Z,10.25
2017-08-23T01:12:01.863Z,10.30
2017-08-23T01:14:28.146Z,8.95
2017-08-23T01:16:54.405Z,10.15
2017-08-23T01:19:20.712Z,9.30
2017-08-23T01:21:47.026Z,10.15
2017-08-23T01:24:13.325Z,9.02
2017-08-23T01:26:39.605Z,9.63
2017-08-23T01:29:06.251Z,8.70
2017-08-23T01:31:32.582Z,9.35
2017-08-23T01:33:58.874Z,9.48
2017-08-23T01:36:25.190Z,9.23
2017-08-23T01:38:51.474Z,9.65
2017-08-23T01:41:17.742Z,14.68
2017-08-23T01:43:44.035Z,10.40
2017-08-23T01:46:10.610Z,9.18
2017-08-23T01:48:36.890Z,10.27
2017-08-23T01:51:03.171Z,10.68
2017-08-23T01:53:29.467Z,10.30
2017-08-23T01:55:55.724Z,13.62
2017-08-23T01:58:22.009Z,10.27
2017-08-23T02:00:48.318Z,9.65
2017-08-23T02:03:14.593Z,9.43
2017-08-23T02:05:40.848Z,10.80
2017-08-23T02:08:08.121Z,11.07
2017-08-23T02:10:34.438Z,10.40
2017-08-23T02:13:00.722Z,10.50
2017-08-23T02:15:26.990Z,12.65
2017-08-23T02:17:53.286Z,10.35
2017-08-23T02:20:19.594Z,10.68
2017-08-23T02:22:45.892Z,10.38
2017-08-23T02:25:12.223Z,10.15
2017-08-23T02:27:38.543Z,11.40
2017-08-23T02:30:04.825Z,10.85
2017-08-23T02:32:31.142Z,9.88
2017-08-23T02:34:57.428Z,10.18
2017-08-23T02:37:23.743Z,12.25
2017-08-23T02:39:50.025Z,11.65
2017-08-23T02:42:16.339Z,10.30
2017-08-23T02:44:42.642Z,9.82
2017-08-23T02:47:08.894Z,12.37
2017-08-23T02:49:35.203Z,10.43
2017-08-23T02:52:01.492Z,11.38
2017-08-23T02:54:27.806Z,10.93
2017-08-23T02:56:54.097Z,10.85
2017-08-23T02:59:20.685Z,11.30
2017-08-23T03:01:46.976Z,12.00
2017-08-23T03:04:13.255Z,10.82
2017-08-23T03:06:39.568Z,11.40
2017-08-23T03:09:05.831Z,10.55
2017-08-23T03:11:32.158Z,10.75
2017-08-23T03:13:58.473Z,10.50
2017-08-23T03:16:24.758Z,10.82
2017-08-23T03:18:51.027Z,11.25
2017-08-23T03:21:17.362Z,11.00
2017-08-23T03:23:43.668Z,9.40
2017-08-23T03:26:09.980Z,10.07
2017-08-23T03:28:36.306Z,11.82
2017-08-23T03:31:02.604Z,10.18
2017-08-23T03:33:28.910Z,12.10
2017-08-23T03:35:55.206Z,11.55
2017-08-23T03:38:21.883Z,10.90
2017-08-23T03:40:48.157Z,11.48
2017-08-23T03:43:14.425Z,12.07
2017-08-23T03:45:40.723Z,12.63
2017-08-23T03:48:06.994Z,11.30
2017-08-23T03:50:33.265Z,12.23
2017-08-23T03:52:59.571Z,12.30
2017-08-23T03:55:25.857Z,10.98
2017-08-23T03:57:52.155Z,11.38
2017-08-23T04:00:18.479Z,12.25
2017-08-23T04:02:44.790Z,12.18
2017-08-23T04:05:11.404Z,11.50
2017-08-23T04:07:38.477Z,12.07
2017-08-23T04:10:04.762Z,11.63
2017-08-23T04:12:31.095Z,12.05
2017-08-23T04:14:57.358Z,12.18
2017-08-23T04:17:23.646Z,11.57
2017-08-23T04:19:49.901Z,11.15
2017-08-23T04:22:16.201Z,12.02
2017-08-23T04:24:42.494Z,12.20
2017-08-23T04:27:09.082Z,10.77
2017-08-23T04:29:35.389Z,12.05
2017-08-23T04:32:01.678Z,11.32
2017-08-23T04:34:27.953Z,11.57
2017-08-23T04:36:54.216Z,10.52
2017-08-23T04:39:20.549Z,12.25
2017-08-23T04:41:46.837Z,12.05
2017-08-23T04:44:13.122Z,12.55
2017-08-23T04:46:39.416Z,12.98
2017-08-23T04:49:05.730Z,11.73
2017-08-23T04:51:32.014Z,12.90
2017-08-23T04:53:58.287Z,11.25
2017-08-23T04:56:24.582Z,17.02
2017-08-23T04:58:50.874Z,12.73
2017-08-23T05:01:17.181Z,13.20
2017-08-23T05:03:43.433Z,11.35
2017-08-23T05:06:10.020Z,12.35
2017-08-23T05:08:36.332Z,13.32
2017-08-23T05:11:02.626Z,13.30
2017-08-23T05:13:28.923Z,12.52
2017-08-23T05:15:55.272Z,12.70
2017-08-23T05:18:21.571Z,12.48
2017-08-23T05:20:47.865Z,12.82
2017-08-23T05:23:14.171Z,12.88
2017-08-23T05:25:40.451Z,12.00
2017-08-23T05:28:06.773Z,11.95
2017-08-23T05:30:33.073Z,12.70
2017-08-23T05:32:59.370Z,12.98
2017-08-23T05:35:25.669Z,10.82
2017-08-23T05:37:51.954Z,11.60
2017-08-23T05:40:18.526Z,15.35
2017-08-23T05:42:44.823Z,12.02
2017-08-23T05:45:11.149Z,11.00
2017-08-23T05:47:37.453Z,12.13
2017-08-23T05:50:03.758Z,11.50
2017-08-23T05:52:30.083Z,12.73
2017-08-23T05:54:56.375Z,12.63
2017-08-23T05:57:22.926Z,12.23
2017-08-23T05:59:49.239Z,12.75
2017-08-23T06:02:15.552Z,11.45
2017-08-23T06:04:41.850Z,13.85
2017-08-23T06:07:08.153Z,12.13
2017-08-23T06:09:34.774Z,13.73
2017-08-23T06:12:01.055Z,10.82
2017-08-23T06:14:27.328Z,12.47
2017-08-23T06:16:53.622Z,12.53
2017-08-23T06:19:19.906Z,11.40
2017-08-23T06:21:46.533Z,11.70
2017-08-23T06:24:12.834Z,12.97
2017-08-23T06:26:39.097Z,13.17
2017-08-23T06:29:05.444Z,11.73
2017-08-23T06:31:31.740Z,12.90
2017-08-23T06:33:58.067Z,12.17
2017-08-23T06:36:24.379Z,12.07
2017-08-23T06:38:51.150Z,12.70
2017-08-23T06:41:17.521Z,11.60
2017-08-23T06:43:43.794Z,13.07
2017-08-23T06:46:10.252Z,10.77
2017-08-23T06:48:36.594Z,12.67
2017-08-23T06:51:03.175Z,11.90
2017-08-23T06:53:29.448Z,13.53
2017-08-23T06:55:55.778Z,11.63
2017-08-23T06:58:22.084Z,12.47
2017-08-23T07:00:48.386Z,12.07
2017-08-23T07:03:14.664Z,15.63
2017-08-23T07:05:40.941Z,13.97
2017-08-23T07:08:07.488Z,11.93
2017-08-23T07:10:33.762Z,12.80
2017-08-23T07:13:00.052Z,12.00
2017-08-23T07:15:26.349Z,12.47
2017-08-23T07:17:52.662Z,13.10
2017-08-23T07:20:18.979Z,12.40
2017-08-23T07:22:45.270Z,12.60
2017-08-23T07:25:11.611Z,10.93
2017-08-23T07:27:37.934Z,12.50
2017-08-23T07:30:04.249Z,12.77
2017-08-23T07:32:30.565Z,11.37
2017-08-23T07:34:56.855Z,11.50
2017-08-23T07:37:23.130Z,11.40
2017-08-23T07:39:49.483Z,13.40
2017-08-23T07:42:15.762Z,13.80
2017-08-23T07:44:42.088Z,11.90
2017-08-23T07:47:08.393Z,13.47
2017-08-23T07:49:34.714Z,13.13
2017-08-23T07:52:01.034Z,12.60
2017-08-23T07:54:27.305Z,12.97
2017-08-23T07:56:53.605Z,11.80
2017-08-23T07:59:19.881Z,11.20
2017-08-23T08:01:46.557Z,10.97
2017-08-23T08:04:12.820Z,10.70
2017-08-23T08:06:39.105Z,11.60
2017-08-23T08:09:05.380Z,11.70
2017-08-23T08:11:31.670Z,10.50
2017-08-23T08:13:58.003Z,12.27
2017-08-23T08:16:24.277Z,10.87
2017-08-23T08:18:50.581Z,10.53
2017-08-23T08:21:16.841Z,11.60
2017-08-23T08:23:43.120Z,10.80
2017-08-23T08:26:09.681Z,10.80
2017-08-23T08:28:35.961Z,13.73
2017-08-23T08:31:02.219Z,12.10
2017-08-23T08:33:28.514Z,11.67
2017-08-23T08:35:54.841Z,11.47
2017-08-23T08:38:21.129Z,12.00
2017-08-23T08:40:47.393Z,11.87
2017-08-23T08:43:13.677Z,12.03
2017-08-23T08:45:39.970Z,11.20
2017-08-23T08:48:06.258Z,11.70
2017-08-23T08:50:32.566Z,10.27
2017-08-23T08:52:58.849Z,10.47
2017-08-23T08:55:25.161Z,12.87
2017-08-23T08:57:52.193Z,11.73
2017-08-23T09:00:18.880Z,10.33
2017-08-23T09:02:45.146Z,12.00
2017-08-23T09:05:11.417Z,10.27
2017-08-23T09:07:37.685Z,12.00
2017-08-23T09:10:03.985Z,9.87
2017-08-23T09:12:30.289Z,12.30
2017-08-23T09:14:56.578Z,10.90
2017-08-23T09:17:22.886Z,10.20
2017-08-23T09:19:49.173Z,10.77
2017-08-23T09:22:15.448Z,9.93
2017-08-23T09:24:41.734Z,10.00
2017-08-23T09:27:07.982Z,9.93
2017-08-23T09:29:34.521Z,9.77
2017-08-23T09:32:01.172Z,9.67
2017-08-23T09:34:27.435Z,10.73
2017-08-23T09:36:53.703Z,10.17
2017-08-23T09:39:19.982Z,9.70
2017-08-23T09:41:46.271Z,9.50
2017-08-23T09:44:12.532Z,11.37
2017-08-23T09:46:39.286Z,8.67
2017-08-23T09:49:05.563Z,10.03
2017-08-23T09:51:31.827Z,9.37
2017-08-23T09:53:58.126Z,11.17
2017-08-23T09:56:24.386Z,9.00
2017-08-23T09:58:50.645Z,10.80
2017-08-23T10:01:16.911Z,11.93
2017-08-23T10:03:43.506Z,10.93
2017-08-23T10:06:09.780Z,10.37
2017-08-23T10:08:36.055Z,9.93
2017-08-23T10:11:02.338Z,9.47
2017-08-23T10:13:28.671Z,9.33
2017-08-23T10:15:55.037Z,9.40
2017-08-23T10:18:21.379Z,8.77
2017-08-23T10:20:47.954Z,11.90
2017-08-23T10:23:14.230Z,10.77
2017-08-23T10:25:40.500Z,8.10
2017-08-23T10:28:06.822Z,8.60
2017-08-23T10:30:33.084Z,9.50
2017-08-23T10:32:59.731Z,8.80
2017-08-23T10:35:26.020Z,7.30
2017-08-23T10:37:52.293Z,8.23
2017-08-23T10:40:18.656Z,7.73
2017-08-23T10:42:45.928Z,7.40
2017-08-23T10:45:12.244Z,7.10
2017-08-23T10:47:38.547Z,6.27
2017-08-23T10:50:04.810Z,7.57
2017-08-23T10:52:31.103Z,9.30
2017-08-23T10:54:57.377Z,10.07
2017-08-23T10:57:23.673Z,7.70
2017-08-23T10:59:49.959Z,6.20
2017-08-23T11:02:16.263Z,5.57
2017-08-23T11:04:42.579Z,5.73
2017-08-23T11:07:08.862Z,6.07
2017-08-23T11:09:35.124Z,5.93
2017-08-23T11:12:01.440Z,4.80
2017-08-23T11:14:27.675Z,4.87
2017-08-23T11:16:53.949Z,4.93
2017-08-23T11:19:20.186Z,4.53
2017-08-23T11:21:46.428Z,6.17
2017-08-23T11:24:12.691Z,6.13
2017-08-23T11:26:38.929Z,5.10
2017-08-23T11:29:05.577Z,5.13
2017-08-23T11:31:32.451Z,5.97
2017-08-23T11:33:58.729Z,4.43
2017-08-23T11:36:25.028Z,4.80
2017-08-23T11:38:51.310Z,4.30
2017-08-23T11:41:17.681Z,6.23
2017-08-23T11:43:43.967Z,4.40
2017-08-23T11:46:10.263Z,4.90
2017-08-23T11:48:36.827Z,4.10
2017-08-23T11:51:03.126Z,3.80
2017-08-23T11:53:29.393Z,3.93
2017-08-23T11:55:55.707Z,4.40
2017-08-23T11:58:21.974Z,4.27
2017-08-23T12:00:48.406Z,4.27
2017-08-23T12:03:14.668Z,3.60
2017-08-23T12:05:40.962Z,3.43
2017-08-23T12:08:07.296Z,3.53
2017-08-23T12:10:33.585Z,4.17
2017-08-23T12:12:59.867Z,3.93
2017-08-23T12:15:26.167Z,3.83
2017-08-23T12:17:52.466Z,4.33
2017-08-23T12:20:18.764Z,3.37
2017-08-23T12:22:45.056Z,3.87
2017-08-23T12:25:11.719Z,3.73
2017-08-23T12:27:38.009Z,3.73
2017-08-23T12:30:04.291Z,3.87
2017-08-23T12:32:30.606Z,3.83
2017-08-23T12:34:56.900Z,4.07
2017-08-23T12:37:23.217Z,3.77
2017-08-23T12:39:49.494Z,3.30
2017-08-23T12:42:15.793Z,3.27
2017-08-23T12:44:42.097Z,4.10
2017-08-23T12:47:08.384Z,4.20
2017-08-23T12:49:34.704Z,3.80
2017-08-23T12:52:00.962Z,4.50
2017-08-23T12:54:27.257Z,3.70
2017-08-23T12:56:53.550Z,3.70
2017-08-23T12:59:19.843Z,3.63
2017-08-23T13:01:46.126Z,3.70
2017-08-23T13:04:15.338Z,4.20
2017-08-23T13:06:41.918Z,4.10
2017-08-23T13:09:08.199Z,4.43
2017-08-23T13:11:34.474Z,4.77
2017-08-23T13:14:00.788Z,3.87
2017-08-23T13:16:27.118Z,4.47
2017-08-23T13:18:53.415Z,4.40
2017-08-23T13:21:19.709Z,4.63
2017-08-23T13:23:46.288Z,4.40
2017-08-23T13:26:12.580Z,4.20
2017-08-23T13:28:38.881Z,5.37
2017-08-23T13:31:05.194Z,4.45
2017-08-23T13:33:31.504Z,4.00
2017-08-23T13:35:57.796Z,5.15
2017-08-23T13:38:24.094Z,4.12
2017-08-23T13:40:50.373Z,4.18
2017-08-23T13:43:16.687Z,5.47
2017-08-23T13:45:42.982Z,4.07
2017-08-23T13:48:09.310Z,4.30
2017-08-23T13:50:35.614Z,3.87
2017-08-23T13:53:01.919Z,4.43
2017-08-23T13:55:28.219Z,4.22
2017-08-23T13:57:54.487Z,4.18
2017-08-23T14:00:20.786Z,4.47
2017-08-23T14:02:47.094Z,4.23
2017-08-23T14:05:13.399Z,3.97
2017-08-23T14:07:39.675Z,3.87
2017-08-23T14:10:05.985Z,3.70
2017-08-23T14:12:32.281Z,3.80
2017-08-23T14:14:58.589Z,4.43
2017-08-23T14:17:24.946Z,4.63
2017-08-23T14:19:52.173Z,3.77
2017-08-23T14:22:18.491Z,3.80
2017-08-23T14:24:44.780Z,3.83
2017-08-23T14:27:11.114Z,4.23
2017-08-23T14:29:37.425Z,4.10
2017-08-23T14:32:03.723Z,3.50
2017-08-23T14:34:30.014Z,4.00
2017-08-23T14:36:56.303Z,3.73
2017-08-23T14:39:22.630Z,4.17
2017-08-23T14:41:48.946Z,3.83
2017-08-23T14:44:15.260Z,3.60
2017-08-23T14:46:42.414Z,3.35
2017-08-23T14:49:08.713Z,3.73
2017-08-23T14:51:35.077Z,3.53
2017-08-23T14:54:01.410Z,3.97
2017-08-23T14:56:27.724Z,3.90
2017-08-23T14:58:54.020Z,3.63
2017-08-23T15:01:20.330Z,4.20
2017-08-23T15:03:46.613Z,3.93
2017-08-23T15:06:13.942Z,3.55
2017-08-23T15:08:40.254Z,3.55
2017-08-23T15:11:06.600Z,4.10
2017-08-23T15:13:32.912Z,3.92
2017-08-23T15:15:59.231Z,3.77
2017-08-23T15:18:25.547Z,3.80
2017-08-23T15:20:51.863Z,4.30
2017-08-23T15:23:18.167Z,3.47
2017-08-23T15:25:44.457Z,3.27
2017-08-23T15:28:11.037Z,3.97
2017-08-23T15:30:37.336Z,3.83
2017-08-23T15:33:03.654Z,4.23
2017-08-23T15:35:29.951Z,3.67
2017-08-23T15:37:56.230Z,3.80
2017-08-23T15:40:22.547Z,3.63
2017-08-23T15:42:48.838Z,3.93
2017-08-23T15:45:15.134Z,4.33
2017-08-23T15:47:41.420Z,3.40
2017-08-23T15:50:07.741Z,3.63
2017-08-23T15:52:34.021Z,3.77
2017-08-23T15:55:00.301Z,3.50
2017-08-23T15:57:27.518Z,3.97
2017-08-23T15:59:53.797Z,5.33
2017-08-23T16:02:20.127Z,3.80
2017-08-23T16:04:46.571Z,4.10
2017-08-23T16:07:12.904Z,3.40
2017-08-23T16:09:39.220Z,3.87
2017-08-23T16:12:05.566Z,4.17
2017-08-23T16:14:31.859Z,3.73
2017-08-23T16:16:58.525Z,4.10
2017-08-23T16:19:24.848Z,4.47
2017-08-23T16:21:51.163Z,3.73
2017-08-23T16:24:17.476Z,3.90
2017-08-23T16:26:43.749Z,3.67
2017-08-23T16:29:10.102Z,3.57
2017-08-23T16:31:36.666Z,3.83
2017-08-23T16:34:03.011Z,3.93
2017-08-23T16:36:29.793Z,4.10
2017-08-23T16:38:56.091Z,3.67
2017-08-23T16:41:22.390Z,4.30
2017-08-23T16:43:48.688Z,3.80
2017-08-23T16:46:14.989Z,3.27
2017-08-23T16:48:41.305Z,3.63
2017-08-23T16:51:07.635Z,4.00
2017-08-23T16:53:33.939Z,4.67
2017-08-23T16:56:00.232Z,3.83
2017-08-23T16:58:26.507Z,3.17
2017-08-23T17:00:52.809Z,3.80
2017-08-23T17:03:19.110Z,3.70
2017-08-23T17:05:45.415Z,4.33
2017-08-23T17:08:11.667Z,5.00
2017-08-23T17:10:37.981Z,4.73
2017-08-23T17:13:04.236Z,4.10
2017-08-23T17:15:30.513Z,5.90
2017-08-23T17:17:56.802Z,4.73
2017-08-23T17:20:23.079Z,5.50
2017-08-23T17:22:49.385Z,4.50
2017-08-23T17:25:15.675Z,4.33
2017-08-23T17:27:41.982Z,5.53
2017-08-23T17:30:08.303Z,3.93
2017-08-23T17:32:34.612Z,4.07
2017-08-23T17:35:01.387Z,3.97
2017-08-23T17:37:27.670Z,3.93
2017-08-23T17:39:53.987Z,4.30
2017-08-23T17:42:21.101Z,3.27
2017-08-23T17:44:47.441Z,4.17
2017-08-23T17:47:13.751Z,4.47
2017-08-23T17:49:40.054Z,8.20
2017-08-23T17:52:06.380Z,4.13
2017-08-23T17:54:33.706Z,4.03
2017-08-23T17:57:00.036Z,4.30
2017-08-23T17:59:26.318Z,6.33
2017-08-23T18:01:52.626Z,5.07
2017-08-23T18:04:18.900Z,5.33
2017-08-23T18:06:45.204Z,5.90
2017-08-23T18:09:11.502Z,7.10
2017-08-23T18:11:37.795Z,5.57
2017-08-23T18:14:04.095Z,5.40
2017-08-23T18:16:30.398Z,7.00
2017-08-23T18:18:57.119Z,8.13
2017-08-23T18:21:23.418Z,6.57
2017-08-23T18:23:49.754Z,6.20
2017-08-23T18:26:16.090Z,6.67
2017-08-23T18:28:42.419Z,5.33
2017-08-23T18:31:08.738Z,6.10
2017-08-23T18:33:35.093Z,6.93
2017-08-23T18:36:01.482Z,6.40
2017-08-23T18:38:27.798Z,6.43
2017-08-23T18:40:54.183Z,6.00
2017-08-23T18:43:20.537Z,6.50
2017-08-23T18:45:46.912Z,6.00
2017-08-23T18:48:13.323Z,6.70
2017-08-23T18:50:39.639Z,6.20
2017-08-23T18:53:05.932Z,6.43
2017-08-23T18:55:32.316Z,5.73
2017-08-23T18:57:58.651Z,5.47
2017-08-23T19:00:24.946Z,5.70
2017-08-23T19:02:51.283Z,7.37
2017-08-23T19:05:17.662Z,8.67
2017-08-23T19:07:43.939Z,10.63
2017-08-23T19:10:12.009Z,10.70
2017-08-23T19:12:38.428Z,8.47
2017-08-23T19:15:04.755Z,8.53
2017-08-23T19:17:31.137Z,9.00
2017-08-23T19:19:57.520Z,8.57
2017-08-23T19:22:23.928Z,11.17
2017-08-23T19:24:51.510Z,9.90
2017-08-23T19:27:17.808Z,11.60
2017-08-23T19:29:44.131Z,10.47
2017-08-23T19:32:10.445Z,8.43
2017-08-23T19:34:36.806Z,11.73
2017-08-23T19:37:03.204Z,8.90
2017-08-23T19:39:29.567Z,8.67
2017-08-23T19:41:55.944Z,8.23
2017-08-23T19:44:22.354Z,9.47
2017-08-23T19:46:49.011Z,9.97
2017-08-23T19:49:15.299Z,8.17
2017-08-23T19:51:41.609Z,8.10
2017-08-23T19:54:07.919Z,8.93
2017-08-23T19:56:34.255Z,10.80
2017-08-23T19:59:00.653Z,8.27
2017-08-23T20:01:26.978Z,8.70
2017-08-23T20:03:53.648Z,8.17
2017-08-23T20:06:19.967Z,8.30
2017-08-23T20:08:46.276Z,8.57
2017-08-23T20:11:13.408Z,7.70
2017-08-23T20:13:39.916Z,9.33
2017-08-23T20:16:06.451Z,7.60
2017-08-23T20:18:33.249Z,7.77
2017-08-23T20:21:00.874Z,7.70
2017-08-23T20:23:27.571Z,7.27
2017-08-23T20:25:53.898Z,8.13
2017-08-23T20:28:20.326Z,7.57
2017-08-23T20:30:51.967Z,7.23
2017-08-23T20:33:20.200Z,7.00
2017-08-23T20:35:46.489Z,7.47
2017-08-23T20:38:12.826Z,7.17
2017-08-23T20:40:40.155Z,7.60
2017-08-23T20:43:06.477Z,7.17
2017-08-23T20:45:33.650Z,6.47
2017-08-23T20:47:59.951Z,6.97
2017-08-23T20:50:26.309Z,7.17
2017-08-23T20:52:52.629Z,8.30
2017-08-23T20:55:19.722Z,7.93
2017-08-23T20:57:46.064Z,6.93
2017-08-23T21:00:13.189Z,7.83
2017-08-23T21:02:39.536Z,6.90
2017-08-23T21:05:06.213Z,6.60
2017-08-23T21:07:32.653Z,6.87
2017-08-23T21:09:58.960Z,9.60
2017-08-23T21:12:25.285Z,7.30
2017-08-23T21:14:51.607Z,7.07
2017-08-23T21:17:18.617Z,7.17
2017-08-23T21:19:45.504Z,7.23
2017-08-23T21:22:11.913Z,8.10
2017-08-23T21:24:39.881Z,6.90
2017-08-23T21:27:07.591Z,7.60
2017-08-23T21:29:36.436Z,6.73
2017-08-23T21:32:07.040Z,6.57
2017-08-23T21:34:36.311Z,6.47
2017-08-23T21:37:04.856Z,7.27
2017-08-23T21:39:31.922Z,6.80
2017-08-23T21:42:00.261Z,7.57
2017-08-23T21:44:27.850Z,6.60
2017-08-23T21:46:59.918Z,6.20
2017-08-23T21:49:29.556Z,7.00
2017-08-23T21:51:56.525Z,7.30
2017-08-23T21:54:22.866Z,6.40
2017-08-23T21:56:50.099Z,7.10
2017-08-23T21:59:17.499Z,7.93
2017-08-23T22:01:46.494Z,8.10
2017-08-23T22:04:13.786Z,8.83
2017-08-23T22:06:40.872Z,9.83
2017-08-23T22:09:07.899Z,8.40
2017-08-23T22:11:34.226Z,10.00
2017-08-23T22:14:01.458Z,10.37
2017-08-23T22:16:28.388Z,10.43
2017-08-23T22:18:54.688Z,10.03
2017-08-23T22:21:24.035Z,9.40
2017-08-23T22:23:50.702Z,9.73
2017-08-23T22:26:17.878Z,9.83
2017-08-23T22:28:45.205Z,10.17
2017-08-23T22:31:14.095Z,10.00
2017-08-23T22:33:41.754Z,9.40
2017-08-23T22:36:08.060Z,9.17
2017-08-23T22:38:34.363Z,10.53
2017-08-23T22:41:00.677Z,10.20
2017-08-23T22:43:26.992Z,10.00
2017-08-23T22:45:53.921Z,9.80
2017-08-23T22:48:20.230Z,10.13
2017-08-23T22:50:50.256Z,9.47
2017-08-23T22:53:24.555Z,9.30
2017-08-23T22:55:53.899Z,9.10
2017-08-23T22:58:20.981Z,9.13
2017-08-23T23:00:47.265Z,9.03
2017-08-23T23:03:14.339Z,10.37
2017-08-23T23:05:42.345Z,10.40
2017-08-23T23:08:08.686Z,9.77
2017-08-23T23:10:36.004Z,8.67
2017-08-23T23:13:02.894Z,8.67
2017-08-23T23:15:29.798Z,7.37
2017-08-23T23:17:56.101Z,8.43
2017-08-23T23:20:22.992Z,7.70
2017-08-23T23:22:49.285Z,8.20
2017-08-23T23:25:15.618Z,7.70
2017-08-23T23:27:42.598Z,8.30
2017-08-23T23:30:10.491Z,7.80
2017-08-23T23:32:37.468Z,6.93
2017-08-23T23:35:04.077Z,6.77
2017-08-23T23:37:32.315Z,7.23
2017-08-23T23:39:59.374Z,6.77
2017-08-23T23:42:25.739Z,6.73
2017-08-23T23:44:52.072Z,7.57
2017-08-23T23:47:19.288Z,9.53
2017-08-23T23:49:45.592Z,7.40
2017-08-23T23:52:12.591Z,6.80
2017-08-23T23:54:39.143Z,8.07
2017-08-23T23:57:05.492Z,6.30
2017-08-23T23:59:32.414Z,7.40
